EW0996 Weather Reports


Display with metric or nautical units.
time (UTC)temp
F
wind
direction
speed
MPH
gust
MPH
rain 1hr
in
rain 24hr
in
rain mn
in
humidity
%
barometer
mb
20190123034526 54 136 2.0 3.0 0.00 0.00 0.00 77 1023.2
20190123033018 54 136 2.0 3.0 0.00 0.00 0.00 77 1023.1
20190123031548 54 136 2.0 3.0 0.00 0.00 0.00 77 1023.0
20190123030027 54 136 1.0 3.0 0.00 0.00 0.00 77 1023.0
20190123024537 54 136 1.0 3.0 0.00 0.00 0.00 77 1022.8
20190123023016 54 136 1.0 3.0 0.00 0.00 0.00 77 1022.8
20190123021510 54 136 1.0 3.0 0.00 0.00 0.00 77 1022.8
20190123020018 54 136 2.0 3.0 0.00 0.00 0.00 77 1022.8
20190123014528 54 136 1.0 3.0 0.00 0.00 0.00 77 1022.8
20190123013022 54 136 2.0 3.0 0.00 0.00 0.00 77 1022.9
20190123011512 54 136 1.0 3.0 0.00 0.00 0.00 78 1022.9
20190123010009 54 136 2.0 3.0 0.00 0.00 0.00 78 1023.0
20190123004539 54 136 2.0 3.0 0.00 0.00 0.00 78 1023.0
20190123003026 54 136 2.0 4.0 0.00 0.00 0.00 78 1023.0
20190123001741 55 296 0.0 0.0 0.00 0.00 0.00 78 1023.0
20190123000122 55 296 0.0 0.0 0.00 0.00 0.00 79 1023.0
20190122234640 55 296 0.0 0.0 0.00 0.00 0.00 78 1023.3
20190122233205 55 296 0.0 0.0 0.00 0.00 0.00 78 1023.4
20190122231737 55 296 0.0 2.0 0.00 0.00 0.00 77 1023.3
20190122230217 55 296 0.0 2.0 0.00 0.00 0.00 77 1023.4
20190122224744 55 296 1.0 2.0 0.00 0.00 0.00 77 1023.4
20190122223137 55 296 0.0 2.0 0.00 0.00 0.00 77 1023.4
20190122221628 55 296 0.0 3.0 0.00 0.00 0.00 77 1023.5
20190122220133 55 296 1.0 2.0 0.00 0.00 0.00 77 1023.5
20190122214626 55 296 1.0 3.0 0.00 0.00 0.00 77 1023.6
20190122213152 56 296 1.0 3.0 0.00 0.00 0.00 77 1023.7
20190122211622 56 296 2.0 4.0 0.00 0.00 0.00 76 1023.6
20190122210122 56 296 2.0 4.0 0.00 0.00 0.00 75 1023.5
20190122204625 56 296 1.0 3.0 0.00 0.00 0.00 75 1023.5
20190122203024 56 296 2.0 4.0 0.00 0.00 0.00 75 1023.4
20190122201516 56 296 2.0 3.0 0.00 0.00 0.00 74 1023.3
20190122200042 56 296 1.0 3.0 0.00 0.00 0.00 73 1023.3
20190122194559 56 296 1.0 3.0 0.00 0.00 0.00 73 1023.2
20190122193115 56 296 1.0 3.0 0.00 0.00 0.00 74 1023.3
20190122191524 56 296 1.0 3.0 0.00 0.00 0.00 75 1023.2
20190122190040 56 296 2.0 4.0 0.00 0.00 0.00 75 1023.3
20190122184517 56 296 1.0 4.0 0.00 0.00 0.00 74 1023.2
20190122183023 57 296 2.0 4.0 0.00 0.00 0.00 74 1023.0
20190122181536 57 295 1.0 4.0 0.00 0.00 0.00 74 1022.9
20190122180009 57 292 1.0 4.0 0.00 0.00 0.00 74 1022.9
20190122174510 57 293 2.0 5.0 0.00 0.00 0.00 73 1022.8
20190122173007 57 309 2.0 5.0 0.00 0.00 0.00 72 1022.8
20190122171505 57 287 4.0 7.0 0.00 0.00 0.00 72 1022.7
20190122170003 57 287 3.0 8.0 0.00 0.00 0.00 73 1022.7
20190122164505 57 284 4.0 9.0 0.00 0.00 0.00 72 1022.7
20190122163002 57 298 3.0 11.0 0.00 0.00 0.00 73 1022.7
20190122161616 57 288 3.0 10.0 0.00 0.00 0.00 74 1022.7
20190122160211 57 266 4.0 10.0 0.00 0.00 0.00 76 1022.7
20190122154729 57 307 4.0 9.0 0.00 0.00 0.00 77 1022.4
20190122151733 58 273 6.0 10.0 0.00 0.00 0.00 77 1022.0
20190122150125 58 277 3.0 7.0 0.00 0.00 0.00 75 1021.9
20190122144620 58 259 3.0 7.0 0.00 0.00 0.00 72 1021.8
20190122143248 58 264 3.0 6.0 0.00 0.00 0.00 69 1021.8
20190122141616 58 272 2.0 7.0 0.00 0.00 0.00 68 1021.8
20190122140145 59 264 3.0 7.0 0.00 0.00 0.00 66 1021.8
20190122134638 59 262 3.0 8.0 0.00 0.00 0.00 64 1021.6
20190122133118 59 271 4.0 7.0 0.00 0.00 0.00 58 1021.6
20190122131632 59 252 3.0 8.0 0.00 0.00 0.00 58 1021.6
20190122130229 59 267 3.0 7.0 0.00 0.00 0.00 62 1021.5
20190122124611 60 275 3.0 7.0 0.00 0.00 0.00 61 1021.4
20190122123219 61 265 2.0 7.0 0.00 0.00 0.00 58 1021.4
20190122121628 61 273 2.0 7.0 0.00 0.00 0.00 57 1021.4
20190122120207 62 243 2.0 9.0 0.00 0.00 0.00 56 1021.3
20190122114620 62 271 1.0 7.0 0.00 0.00 0.00 55 1021.3
20190122113154 62 271 1.0 9.0 0.00 0.00 0.00 56 1021.3
20190122111658 63 281 1.0 7.0 0.00 0.00 0.00 55 1021.5
20190122110108 64 273 5.0 8.0 0.00 0.00 0.00 52 1021.6
20190122104624 65 245 0.0 4.0 0.00 0.00 0.00 50 1021.5
20190122103125 65 57 0.0 4.0 0.00 0.00 0.00 47 1021.6
20190122101614 65 60 1.0 5.0 0.00 0.00 0.00 47 1021.7
20190122100133 64 74 2.0 6.0 0.00 0.00 0.00 47 1021.9
20190122094656 63 80 3.0 6.0 0.00 0.00 0.00 47 1022.0
20190122093122 62 67 3.0 9.0 0.00 0.00 0.00 48 1022.2
20190122091607 62 52 3.0 10.0 0.00 0.00 0.00 49 1022.4
20190122090032 61 78 5.0 10.0 0.00 0.00 0.00 49 1022.5
20190122084614 61 43 5.0 11.0 0.00 0.00 0.00 48 1022.7
20190122083054 61 71 7.0 12.0 0.00 0.00 0.00 49 1022.8
20190122081535 60 80 5.0 11.0 0.00 0.00 0.00 50 1022.8
20190122080016 59 66 6.0 12.0 0.00 0.00 0.00 50 1022.8
20190122074519 58 87 6.0 11.0 0.00 0.00 0.00 52 1022.8
20190122073019 58 65 5.0 13.0 0.00 0.00 0.00 53 1022.6
20190122071640 58 89 9.0 15.0 0.00 0.00 0.00 52 1022.5
20190122070130 57 90 6.0 14.0 0.00 0.00 0.00 53 1022.4
20190122064617 57 86 9.0 14.0 0.00 0.00 0.00 52 1022.2
20190122063118 56 67 6.0 13.0 0.00 0.00 0.00 53 1022.1
20190122061744 56 88 8.0 13.0 0.00 0.00 0.00 53 1022.0
20190122060131 55 68 9.0 17.0 0.00 0.00 0.00 53 1022.1
20190122054605 55 67 9.0 14.0 0.00 0.00 0.00 53 1022.1
20190122053115 55 76 10.0 13.0 0.00 0.00 0.00 52 1022.0
20190122051633 56 84 8.0 11.0 0.00 0.00 0.00 50 1021.8
20190122050059 56 71 7.0 15.0 0.00 0.00 0.00 50 1021.8
20190122044606 56 117 8.0 14.0 0.00 0.00 0.00 50 1021.5
20190122043027 56 75 7.0 13.0 0.00 0.00 0.00 50 1021.4
20190122041540 56 86 8.0 15.0 0.00 0.00 0.00 50 1021.3
20190122040053 56 84 8.0 15.0 0.00 0.00 0.00 50 1021.2